sensor_id;sensor_type;location;lat;lon;timestamp;P1;durP1;ratioP1;P2;durP2;ratioP2
17065;SDS011;23120;52.336;21.182;2022-09-27T00:00:26;14.73;;;13.33;;
17065;SDS011;23120;52.336;21.182;2022-09-27T00:02:53;14.37;;;12.87;;
17065;SDS011;23120;52.336;21.182;2022-09-27T00:05:22;15.80;;;14.20;;
17065;SDS011;23120;52.336;21.182;2022-09-27T00:07:49;15.10;;;13.50;;
17065;SDS011;23120;52.336;21.182;2022-09-27T00:10:16;16.37;;;14.77;;
17065;SDS011;23120;52.336;21.182;2022-09-27T00:12:43;17.17;;;15.37;;
17065;SDS011;23120;52.336;21.182;2022-09-27T00:15:10;18.53;;;16.63;;
17065;SDS011;23120;52.336;21.182;2022-09-27T00:17:37;19.13;;;17.17;;
17065;SDS011;23120;52.336;21.182;2022-09-27T00:20:05;19.33;;;17.47;;
17065;SDS011;23120;52.336;21.182;2022-09-27T00:22:34;18.63;;;16.80;;
17065;SDS011;23120;52.336;21.182;2022-09-27T00:25:01;19.53;;;17.73;;
17065;SDS011;23120;52.336;21.182;2022-09-27T00:27:30;19.23;;;17.23;;
17065;SDS011;23120;52.336;21.182;2022-09-27T00:29:57;20.30;;;18.30;;
17065;SDS011;23120;52.336;21.182;2022-09-27T00:32:23;20.50;;;18.27;;
17065;SDS011;23120;52.336;21.182;2022-09-27T00:34:50;20.47;;;18.47;;
17065;SDS011;23120;52.336;21.182;2022-09-27T00:37:17;19.87;;;17.77;;
17065;SDS011;23120;52.336;21.182;2022-09-27T00:39:46;20.30;;;18.20;;
17065;SDS011;23120;52.336;21.182;2022-09-27T00:42:13;20.20;;;18.30;;
17065;SDS011;23120;52.336;21.182;2022-09-27T00:44:57;19.57;;;17.67;;
17065;SDS011;23120;52.336;21.182;2022-09-27T00:47:29;19.40;;;17.40;;
17065;SDS011;23120;52.336;21.182;2022-09-27T00:50:02;19.00;;;17.10;;
17065;SDS011;23120;52.336;21.182;2022-09-27T00:52:35;21.73;;;19.20;;
17065;SDS011;23120;52.336;21.182;2022-09-27T00:55:10;20.07;;;18.17;;
17065;SDS011;23120;52.336;21.182;2022-09-27T00:57:40;19.13;;;17.27;;
17065;SDS011;23120;52.336;21.182;2022-09-27T01:00:10;21.27;;;17.67;;
17065;SDS011;23120;52.336;21.182;2022-09-27T01:02:40;20.93;;;18.73;;
17065;SDS011;23120;52.336;21.182;2022-09-27T01:05:10;21.13;;;19.03;;
17065;SDS011;23120;52.336;21.182;2022-09-27T01:07:39;19.73;;;17.50;;
17065;SDS011;23120;52.336;21.182;2022-09-27T01:10:06;20.67;;;18.50;;
17065;SDS011;23120;52.336;21.182;2022-09-27T01:12:37;21.43;;;19.10;;
17065;SDS011;23120;52.336;21.182;2022-09-27T01:15:12;21.33;;;19.13;;
17065;SDS011;23120;52.336;21.182;2022-09-27T01:17:50;20.43;;;18.40;;
17065;SDS011;23120;52.336;21.182;2022-09-27T01:20:42;22.17;;;19.90;;
17065;SDS011;23120;52.336;21.182;2022-09-27T01:23:48;20.60;;;18.40;;
17065;SDS011;23120;52.336;21.182;2022-09-27T01:26:37;20.53;;;18.43;;
17065;SDS011;23120;52.336;21.182;2022-09-27T01:29:25;21.57;;;19.27;;
17065;SDS011;23120;52.336;21.182;2022-09-27T01:32:03;20.83;;;18.67;;
17065;SDS011;23120;52.336;21.182;2022-09-27T01:34:34;22.13;;;19.83;;
17065;SDS011;23120;52.336;21.182;2022-09-27T01:37:09;22.57;;;20.17;;
17065;SDS011;23120;52.336;21.182;2022-09-27T01:39:45;22.63;;;20.33;;
17065;SDS011;23120;52.336;21.182;2022-09-27T01:42:34;21.93;;;19.73;;
17065;SDS011;23120;52.336;21.182;2022-09-27T01:45:08;21.60;;;19.43;;
17065;SDS011;23120;52.336;21.182;2022-09-27T01:47:49;23.07;;;20.67;;
17065;SDS011;23120;52.336;21.182;2022-09-27T01:50:34;23.90;;;21.13;;
17065;SDS011;23120;52.336;21.182;2022-09-27T01:53:06;24.10;;;21.20;;
17065;SDS011;23120;52.336;21.182;2022-09-27T01:55:53;24.37;;;21.60;;
17065;SDS011;23120;52.336;21.182;2022-09-27T01:58:35;23.70;;;21.30;;
17065;SDS011;23120;52.336;21.182;2022-09-27T02:01:06;22.97;;;20.70;;
17065;SDS011;23120;52.336;21.182;2022-09-27T02:03:38;22.43;;;20.23;;
17065;SDS011;23120;52.336;21.182;2022-09-27T02:06:24;23.33;;;20.87;;
17065;SDS011;23120;52.336;21.182;2022-09-27T02:09:00;22.97;;;20.57;;
17065;SDS011;23120;52.336;21.182;2022-09-27T02:11:46;24.30;;;21.80;;
17065;SDS011;23120;52.336;21.182;2022-09-27T02:14:17;25.73;;;23.13;;
17065;SDS011;23120;52.336;21.182;2022-09-27T02:16:53;25.03;;;22.43;;
17065;SDS011;23120;52.336;21.182;2022-09-27T02:19:31;27.57;;;24.73;;
17065;SDS011;23120;52.336;21.182;2022-09-27T02:22:05;26.63;;;24.03;;
17065;SDS011;23120;52.336;21.182;2022-09-27T02:24:40;26.10;;;23.30;;
17065;SDS011;23120;52.336;21.182;2022-09-27T02:27:12;27.37;;;23.67;;
17065;SDS011;23120;52.336;21.182;2022-09-27T02:29:44;26.53;;;23.70;;
17065;SDS011;23120;52.336;21.182;2022-09-27T02:32:15;26.03;;;23.30;;
17065;SDS011;23120;52.336;21.182;2022-09-27T02:34:44;26.07;;;23.37;;
17065;SDS011;23120;52.336;21.182;2022-09-27T02:37:12;26.97;;;24.13;;
17065;SDS011;23120;52.336;21.182;2022-09-27T02:39:39;27.00;;;24.00;;
17065;SDS011;23120;52.336;21.182;2022-09-27T02:42:07;30.40;;;26.57;;
17065;SDS011;23120;52.336;21.182;2022-09-27T02:44:35;27.53;;;24.50;;
17065;SDS011;23120;52.336;21.182;2022-09-27T02:47:07;27.20;;;24.23;;
17065;SDS011;23120;52.336;21.182;2022-09-27T02:49:48;34.17;;;25.60;;
17065;SDS011;23120;52.336;21.182;2022-09-27T02:52:48;27.67;;;24.20;;
17065;SDS011;23120;52.336;21.182;2022-09-27T02:55:23;33.43;;;26.67;;
17065;SDS011;23120;52.336;21.182;2022-09-27T02:58:24;32.47;;;25.97;;
17065;SDS011;23120;52.336;21.182;2022-09-27T03:01:20;30.37;;;25.67;;
17065;SDS011;23120;52.336;21.182;2022-09-27T03:04:03;33.33;;;27.30;;
17065;SDS011;23120;52.336;21.182;2022-09-27T03:06:37;29.17;;;26.03;;
17065;SDS011;23120;52.336;21.182;2022-09-27T03:09:12;29.70;;;26.17;;
17065;SDS011;23120;52.336;21.182;2022-09-27T03:11:42;33.07;;;25.77;;
17065;SDS011;23120;52.336;21.182;2022-09-27T03:14:09;31.37;;;26.33;;
17065;SDS011;23120;52.336;21.182;2022-09-27T03:16:43;29.60;;;26.40;;
17065;SDS011;23120;52.336;21.182;2022-09-27T03:19:23;30.30;;;25.37;;
17065;SDS011;23120;52.336;21.182;2022-09-27T03:22:04;33.13;;;26.60;;
17065;SDS011;23120;52.336;21.182;2022-09-27T03:24:31;33.33;;;28.43;;
17065;SDS011;23120;52.336;21.182;2022-09-27T03:26:58;32.30;;;27.53;;
17065;SDS011;23120;52.336;21.182;2022-09-27T03:29:25;30.50;;;26.53;;
17065;SDS011;23120;52.336;21.182;2022-09-27T03:32:00;33.73;;;26.00;;
17065;SDS011;23120;52.336;21.182;2022-09-27T03:34:43;32.17;;;27.90;;
17065;SDS011;23120;52.336;21.182;2022-09-27T03:37:11;33.13;;;27.30;;
17065;SDS011;23120;52.336;21.182;2022-09-27T03:39:38;31.67;;;27.03;;
17065;SDS011;23120;52.336;21.182;2022-09-27T03:42:05;31.50;;;27.07;;
17065;SDS011;23120;52.336;21.182;2022-09-27T03:44:34;33.37;;;27.10;;
17065;SDS011;23120;52.336;21.182;2022-09-27T03:47:01;31.63;;;27.63;;
17065;SDS011;23120;52.336;21.182;2022-09-27T03:49:28;33.67;;;26.67;;
17065;SDS011;23120;52.336;21.182;2022-09-27T03:51:56;30.00;;;25.17;;
17065;SDS011;23120;52.336;21.182;2022-09-27T03:54:24;32.90;;;27.33;;
17065;SDS011;23120;52.336;21.182;2022-09-27T03:56:51;32.20;;;27.17;;
17065;SDS011;23120;52.336;21.182;2022-09-27T03:59:18;33.53;;;27.30;;
17065;SDS011;23120;52.336;21.182;2022-09-27T04:02:03;33.97;;;28.10;;
17065;SDS011;23120;52.336;21.182;2022-09-27T04:04:50;33.87;;;26.53;;
17065;SDS011;23120;52.336;21.182;2022-09-27T04:07:17;32.50;;;26.93;;
17065;SDS011;23120;52.336;21.182;2022-09-27T04:09:46;34.23;;;28.00;;
17065;SDS011;23120;52.336;21.182;2022-09-27T04:12:13;31.83;;;25.80;;
17065;SDS011;23120;52.336;21.182;2022-09-27T04:14:40;35.23;;;27.20;;
17065;SDS011;23120;52.336;21.182;2022-09-27T04:17:27;30.50;;;26.43;;
17065;SDS011;23120;52.336;21.182;2022-09-27T04:20:14;35.50;;;27.33;;
17065;SDS011;23120;52.336;21.182;2022-09-27T04:22:41;33.37;;;27.10;;
17065;SDS011;23120;52.336;21.182;2022-09-27T04:25:11;36.33;;;28.37;;
17065;SDS011;23120;52.336;21.182;2022-09-27T04:27:43;35.93;;;28.03;;
17065;SDS011;23120;52.336;21.182;2022-09-27T04:30:11;32.30;;;27.63;;
17065;SDS011;23120;52.336;21.182;2022-09-27T04:32:58;35.37;;;27.63;;
17065;SDS011;23120;52.336;21.182;2022-09-27T04:35:43;38.73;;;28.67;;
17065;SDS011;23120;52.336;21.182;2022-09-27T04:38:28;36.80;;;29.00;;
17065;SDS011;23120;52.336;21.182;2022-09-27T04:40:56;36.57;;;27.83;;
17065;SDS011;23120;52.336;21.182;2022-09-27T04:43:25;37.60;;;29.43;;
17065;SDS011;23120;52.336;21.182;2022-09-27T04:45:52;36.70;;;29.03;;
17065;SDS011;23120;52.336;21.182;2022-09-27T04:48:19;38.73;;;29.23;;
17065;SDS011;23120;52.336;21.182;2022-09-27T04:50:47;33.07;;;28.20;;
17065;SDS011;23120;52.336;21.182;2022-09-27T04:53:21;35.33;;;27.67;;
17065;SDS011;23120;52.336;21.182;2022-09-27T04:55:48;32.00;;;26.60;;
17065;SDS011;23120;52.336;21.182;2022-09-27T04:58:16;35.00;;;27.30;;
17065;SDS011;23120;52.336;21.182;2022-09-27T05:00:43;36.10;;;26.87;;
17065;SDS011;23120;52.336;21.182;2022-09-27T05:03:23;34.17;;;27.47;;
17065;SDS011;23120;52.336;21.182;2022-09-27T05:05:54;34.00;;;27.07;;
17065;SDS011;23120;52.336;21.182;2022-09-27T05:08:21;33.37;;;26.70;;
17065;SDS011;23120;52.336;21.182;2022-09-27T05:11:03;33.77;;;27.30;;
17065;SDS011;23120;52.336;21.182;2022-09-27T05:13:33;29.13;;;25.33;;
17065;SDS011;23120;52.336;21.182;2022-09-27T05:16:00;31.70;;;27.40;;
17065;SDS011;23120;52.336;21.182;2022-09-27T05:18:40;30.63;;;25.87;;
17065;SDS011;23120;52.336;21.182;2022-09-27T05:21:26;33.07;;;28.30;;
17065;SDS011;23120;52.336;21.182;2022-09-27T05:23:53;33.77;;;27.20;;
17065;SDS011;23120;52.336;21.182;2022-09-27T05:26:20;34.43;;;27.57;;
17065;SDS011;23120;52.336;21.182;2022-09-27T05:28:49;30.90;;;27.00;;
17065;SDS011;23120;52.336;21.182;2022-09-27T05:31:16;32.97;;;26.97;;
17065;SDS011;23120;52.336;21.182;2022-09-27T05:33:43;30.40;;;26.43;;
17065;SDS011;23120;52.336;21.182;2022-09-27T05:36:30;31.30;;;25.87;;
17065;SDS011;23120;52.336;21.182;2022-09-27T05:38:57;34.27;;;26.63;;
17065;SDS011;23120;52.336;21.182;2022-09-27T05:41:24;31.17;;;26.63;;
17065;SDS011;23120;52.336;21.182;2022-09-27T05:43:52;32.40;;;26.47;;
17065;SDS011;23120;52.336;21.182;2022-09-27T05:46:19;34.10;;;27.37;;
17065;SDS011;23120;52.336;21.182;2022-09-27T05:48:46;32.70;;;25.40;;
17065;SDS011;23120;52.336;21.182;2022-09-27T05:51:13;31.37;;;25.63;;
17065;SDS011;23120;52.336;21.182;2022-09-27T05:53:40;32.10;;;25.83;;
17065;SDS011;23120;52.336;21.182;2022-09-27T05:56:16;30.07;;;24.83;;
17065;SDS011;23120;52.336;21.182;2022-09-27T05:59:04;31.33;;;26.20;;
17065;SDS011;23120;52.336;21.182;2022-09-27T06:01:51;32.03;;;25.73;;
17065;SDS011;23120;52.336;21.182;2022-09-27T06:04:38;32.27;;;24.63;;
17065;SDS011;23120;52.336;21.182;2022-09-27T06:07:25;32.43;;;25.23;;
17065;SDS011;23120;52.336;21.182;2022-09-27T06:09:54;32.80;;;24.43;;
17065;SDS011;23120;52.336;21.182;2022-09-27T06:12:20;31.53;;;24.60;;
17065;SDS011;23120;52.336;21.182;2022-09-27T06:14:49;29.33;;;24.53;;
17065;SDS011;23120;52.336;21.182;2022-09-27T06:17:28;27.93;;;23.93;;
17065;SDS011;23120;52.336;21.182;2022-09-27T06:20:00;28.03;;;23.50;;
17065;SDS011;23120;52.336;21.182;2022-09-27T06:22:28;27.60;;;22.80;;
17065;SDS011;23120;52.336;21.182;2022-09-27T06:24:58;27.37;;;21.90;;
17065;SDS011;23120;52.336;21.182;2022-09-27T06:27:29;26.37;;;21.90;;
17065;SDS011;23120;52.336;21.182;2022-09-27T06:30:00;28.70;;;22.17;;
17065;SDS011;23120;52.336;21.182;2022-09-27T06:32:44;26.63;;;21.63;;
17065;SDS011;23120;52.336;21.182;2022-09-27T06:35:25;26.13;;;21.47;;
17065;SDS011;23120;52.336;21.182;2022-09-27T06:37:54;24.63;;;21.47;;
17065;SDS011;23120;52.336;21.182;2022-09-27T06:40:21;25.90;;;20.57;;
17065;SDS011;23120;52.336;21.182;2022-09-27T06:43:00;29.47;;;22.73;;
17065;SDS011;23120;52.336;21.182;2022-09-27T06:45:49;28.17;;;21.60;;
17065;SDS011;23120;52.336;21.182;2022-09-27T06:48:33;24.90;;;20.83;;
17065;SDS011;23120;52.336;21.182;2022-09-27T06:51:12;26.17;;;20.53;;
17065;SDS011;23120;52.336;21.182;2022-09-27T06:53:38;26.23;;;21.17;;
17065;SDS011;23120;52.336;21.182;2022-09-27T06:56:05;27.57;;;21.43;;
17065;SDS011;23120;52.336;21.182;2022-09-27T06:58:43;31.50;;;22.30;;
17065;SDS011;23120;52.336;21.182;2022-09-27T07:01:45;27.07;;;21.80;;
17065;SDS011;23120;52.336;21.182;2022-09-27T07:04:23;29.13;;;23.23;;
17065;SDS011;23120;52.336;21.182;2022-09-27T07:07:03;28.63;;;22.70;;
17065;SDS011;23120;52.336;21.182;2022-09-27T07:09:33;28.93;;;23.37;;
17065;SDS011;23120;52.336;21.182;2022-09-27T07:12:04;31.30;;;23.37;;
17065;SDS011;23120;52.336;21.182;2022-09-27T07:14:30;29.10;;;23.13;;
17065;SDS011;23120;52.336;21.182;2022-09-27T07:17:00;26.97;;;22.00;;
17065;SDS011;23120;52.336;21.182;2022-09-27T07:19:32;29.03;;;22.50;;
17065;SDS011;23120;52.336;21.182;2022-09-27T07:21:59;30.43;;;22.80;;
17065;SDS011;23120;52.336;21.182;2022-09-27T07:24:27;29.80;;;23.80;;
17065;SDS011;23120;52.336;21.182;2022-09-27T07:26:55;31.30;;;24.03;;
17065;SDS011;23120;52.336;21.182;2022-09-27T07:29:22;33.50;;;25.43;;
17065;SDS011;23120;52.336;21.182;2022-09-27T07:31:51;31.70;;;25.73;;
17065;SDS011;23120;52.336;21.182;2022-09-27T07:34:19;35.70;;;26.70;;
17065;SDS011;23120;52.336;21.182;2022-09-27T07:36:46;34.93;;;26.90;;
17065;SDS011;23120;52.336;21.182;2022-09-27T07:39:13;33.93;;;25.30;;
17065;SDS011;23120;52.336;21.182;2022-09-27T07:41:41;32.83;;;26.67;;
17065;SDS011;23120;52.336;21.182;2022-09-27T07:44:10;35.30;;;26.57;;
17065;SDS011;23120;52.336;21.182;2022-09-27T07:46:49;32.43;;;25.83;;
17065;SDS011;23120;52.336;21.182;2022-09-27T07:49:22;33.47;;;25.37;;
17065;SDS011;23120;52.336;21.182;2022-09-27T07:51:59;34.30;;;25.43;;
17065;SDS011;23120;52.336;21.182;2022-09-27T07:54:43;28.43;;;23.37;;
17065;SDS011;23120;52.336;21.182;2022-09-27T07:57:24;31.70;;;24.43;;
17065;SDS011;23120;52.336;21.182;2022-09-27T07:59:52;27.63;;;23.50;;
17065;SDS011;23120;52.336;21.182;2022-09-27T08:02:21;26.73;;;22.87;;
17065;SDS011;23120;52.336;21.182;2022-09-27T08:04:51;27.00;;;22.37;;
17065;SDS011;23120;52.336;21.182;2022-09-27T08:07:18;24.80;;;22.23;;
17065;SDS011;23120;52.336;21.182;2022-09-27T08:09:49;24.00;;;20.93;;
17065;SDS011;23120;52.336;21.182;2022-09-27T08:12:16;26.70;;;21.93;;
17065;SDS011;23120;52.336;21.182;2022-09-27T08:14:43;24.70;;;21.47;;
17065;SDS011;23120;52.336;21.182;2022-09-27T08:17:10;24.57;;;21.03;;
17065;SDS011;23120;52.336;21.182;2022-09-27T08:19:59;22.57;;;20.10;;
17065;SDS011;23120;52.336;21.182;2022-09-27T08:22:44;23.37;;;20.67;;
17065;SDS011;23120;52.336;21.182;2022-09-27T08:25:22;22.43;;;20.03;;
17065;SDS011;23120;52.336;21.182;2022-09-27T08:28:03;22.00;;;19.23;;
17065;SDS011;23120;52.336;21.182;2022-09-27T08:30:39;24.50;;;19.93;;
17065;SDS011;23120;52.336;21.182;2022-09-27T08:33:06;23.87;;;19.57;;
17065;SDS011;23120;52.336;21.182;2022-09-27T08:35:35;21.37;;;18.97;;
17065;SDS011;23120;52.336;21.182;2022-09-27T08:38:03;21.50;;;19.20;;
17065;SDS011;23120;52.336;21.182;2022-09-27T08:40:35;20.93;;;18.77;;
17065;SDS011;23120;52.336;21.182;2022-09-27T08:43:12;21.73;;;19.43;;
17065;SDS011;23120;52.336;21.182;2022-09-27T08:45:48;19.97;;;18.03;;
17065;SDS011;23120;52.336;21.182;2022-09-27T08:48:25;21.23;;;17.97;;
17065;SDS011;23120;52.336;21.182;2022-09-27T08:50:55;19.23;;;17.23;;
17065;SDS011;23120;52.336;21.182;2022-09-27T08:53:24;20.17;;;16.57;;
17065;SDS011;23120;52.336;21.182;2022-09-27T08:55:54;17.00;;;15.30;;
17065;SDS011;23120;52.336;21.182;2022-09-27T08:58:27;17.57;;;15.83;;
17065;SDS011;23120;52.336;21.182;2022-09-27T09:00:57;18.83;;;16.70;;
17065;SDS011;23120;52.336;21.182;2022-09-27T09:03:32;17.50;;;15.80;;
17065;SDS011;23120;52.336;21.182;2022-09-27T09:06:08;16.57;;;14.83;;
17065;SDS011;23120;52.336;21.182;2022-09-27T09:08:43;16.90;;;15.30;;
17065;SDS011;23120;52.336;21.182;2022-09-27T09:11:26;14.60;;;13.30;;
17065;SDS011;23120;52.336;21.182;2022-09-27T09:14:24;15.53;;;14.07;;
17065;SDS011;23120;52.336;21.182;2022-09-27T09:17:09;15.07;;;13.67;;
17065;SDS011;23120;52.336;21.182;2022-09-27T09:20:02;13.80;;;12.50;;
17065;SDS011;23120;52.336;21.182;2022-09-27T09:22:57;13.27;;;11.97;;
17065;SDS011;23120;52.336;21.182;2022-09-27T09:25:40;13.10;;;11.90;;
17065;SDS011;23120;52.336;21.182;2022-09-27T09:28:18;11.57;;;10.57;;
17065;SDS011;23120;52.336;21.182;2022-09-27T09:30:55;13.07;;;11.60;;
17065;SDS011;23120;52.336;21.182;2022-09-27T09:33:28;13.50;;;12.30;;
17065;SDS011;23120;52.336;21.182;2022-09-27T09:36:00;13.03;;;11.53;;
17065;SDS011;23120;52.336;21.182;2022-09-27T09:38:35;12.40;;;11.33;;
17065;SDS011;23120;52.336;21.182;2022-09-27T09:41:06;12.53;;;11.30;;
17065;SDS011;23120;52.336;21.182;2022-09-27T09:43:43;13.13;;;11.73;;
17065;SDS011;23120;52.336;21.182;2022-09-27T09:46:15;17.80;;;11.73;;
17065;SDS011;23120;52.336;21.182;2022-09-27T09:48:46;12.93;;;11.63;;
17065;SDS011;23120;52.336;21.182;2022-09-27T09:51:18;14.17;;;12.70;;
17065;SDS011;23120;52.336;21.182;2022-09-27T09:53:52;14.63;;;12.10;;
17065;SDS011;23120;52.336;21.182;2022-09-27T09:56:28;12.63;;;11.47;;
17065;SDS011;23120;52.336;21.182;2022-09-27T09:58:58;13.10;;;12.00;;
17065;SDS011;23120;52.336;21.182;2022-09-27T10:01:32;12.17;;;11.00;;
17065;SDS011;23120;52.336;21.182;2022-09-27T10:04:02;12.63;;;11.50;;
17065;SDS011;23120;52.336;21.182;2022-09-27T10:06:29;12.73;;;11.57;;
17065;SDS011;23120;52.336;21.182;2022-09-27T10:09:01;12.93;;;11.73;;
17065;SDS011;23120;52.336;21.182;2022-09-27T10:11:36;13.13;;;11.90;;
17065;SDS011;23120;52.336;21.182;2022-09-27T10:14:09;12.80;;;11.63;;
17065;SDS011;23120;52.336;21.182;2022-09-27T10:16:38;12.47;;;11.37;;
17065;SDS011;23120;52.336;21.182;2022-09-27T10:19:07;12.30;;;10.87;;
17065;SDS011;23120;52.336;21.182;2022-09-27T10:21:37;11.07;;;10.17;;
17065;SDS011;23120;52.336;21.182;2022-09-27T10:24:11;10.67;;;9.63;;
17065;SDS011;23120;52.336;21.182;2022-09-27T10:26:56;11.07;;;10.07;;
17065;SDS011;23120;52.336;21.182;2022-09-27T10:29:28;10.70;;;9.80;;
17065;SDS011;23120;52.336;21.182;2022-09-27T10:31:56;9.63;;;8.90;;
17065;SDS011;23120;52.336;21.182;2022-09-27T10:34:32;10.83;;;9.93;;
17065;SDS011;23120;52.336;21.182;2022-09-27T10:37:14;10.63;;;9.73;;
17065;SDS011;23120;52.336;21.182;2022-09-27T10:39:55;10.50;;;9.50;;
17065;SDS011;23120;52.336;21.182;2022-09-27T10:42:33;9.60;;;8.80;;
17065;SDS011;23120;52.336;21.182;2022-09-27T10:45:19;9.60;;;8.80;;
17065;SDS011;23120;52.336;21.182;2022-09-27T10:48:17;10.53;;;9.30;;
17065;SDS011;23120;52.336;21.182;2022-09-27T10:50:53;10.27;;;9.27;;
17065;SDS011;23120;52.336;21.182;2022-09-27T10:53:30;10.27;;;9.37;;
17065;SDS011;23120;52.336;21.182;2022-09-27T10:56:05;10.30;;;9.43;;
17065;SDS011;23120;52.336;21.182;2022-09-27T10:58:33;10.50;;;8.17;;
17065;SDS011;23120;52.336;21.182;2022-09-27T11:01:04;9.07;;;8.33;;
17065;SDS011;23120;52.336;21.182;2022-09-27T11:03:53;8.17;;;7.57;;
17065;SDS011;23120;52.336;21.182;2022-09-27T11:06:28;9.13;;;7.83;;
17065;SDS011;23120;52.336;21.182;2022-09-27T11:09:10;8.17;;;7.47;;
17065;SDS011;23120;52.336;21.182;2022-09-27T11:11:46;7.97;;;7.20;;
17065;SDS011;23120;52.336;21.182;2022-09-27T11:14:21;8.40;;;7.70;;
17065;SDS011;23120;52.336;21.182;2022-09-27T11:16:58;7.97;;;7.37;;
17065;SDS011;23120;52.336;21.182;2022-09-27T11:19:51;8.50;;;7.63;;
17065;SDS011;23120;52.336;21.182;2022-09-27T11:22:41;8.40;;;6.83;;
17065;SDS011;23120;52.336;21.182;2022-09-27T11:25:32;7.50;;;6.90;;
17065;SDS011;23120;52.336;21.182;2022-09-27T11:28:11;7.10;;;6.43;;
17065;SDS011;23120;52.336;21.182;2022-09-27T11:30:51;7.53;;;7.03;;
17065;SDS011;23120;52.336;21.182;2022-09-27T11:33:44;7.53;;;6.93;;
17065;SDS011;23120;52.336;21.182;2022-09-27T11:36:33;7.50;;;6.77;;
17065;SDS011;23120;52.336;21.182;2022-09-27T11:39:14;7.60;;;7.00;;
17065;SDS011;23120;52.336;21.182;2022-09-27T11:41:54;6.70;;;6.20;;
17065;SDS011;23120;52.336;21.182;2022-09-27T11:44:42;6.60;;;6.10;;
17065;SDS011;23120;52.336;21.182;2022-09-27T11:47:32;7.27;;;6.63;;
17065;SDS011;23120;52.336;21.182;2022-09-27T11:50:16;7.00;;;6.30;;
17065;SDS011;23120;52.336;21.182;2022-09-27T11:52:56;6.60;;;6.10;;
17065;SDS011;23120;52.336;21.182;2022-09-27T11:55:36;6.20;;;5.80;;
17065;SDS011;23120;52.336;21.182;2022-09-27T11:58:12;6.87;;;6.07;;
17065;SDS011;23120;52.336;21.182;2022-09-27T12:00:53;6.70;;;6.20;;
17065;SDS011;23120;52.336;21.182;2022-09-27T12:03:42;5.83;;;5.43;;
17065;SDS011;23120;52.336;21.182;2022-09-27T12:06:24;6.20;;;5.70;;
17065;SDS011;23120;52.336;21.182;2022-09-27T12:09:02;6.13;;;5.63;;
17065;SDS011;23120;52.336;21.182;2022-09-27T12:11:35;6.27;;;5.77;;
17065;SDS011;23120;52.336;21.182;2022-09-27T12:14:10;6.40;;;5.90;;
17065;SDS011;23120;52.336;21.182;2022-09-27T12:16:46;6.37;;;5.87;;
17065;SDS011;23120;52.336;21.182;2022-09-27T12:19:18;8.03;;;6.47;;
17065;SDS011;23120;52.336;21.182;2022-09-27T12:22:04;6.07;;;5.57;;
17065;SDS011;23120;52.336;21.182;2022-09-27T12:24:41;6.47;;;5.97;;
17065;SDS011;23120;52.336;21.182;2022-09-27T12:27:30;6.90;;;6.30;;
17065;SDS011;23120;52.336;21.182;2022-09-27T12:30:02;6.67;;;6.07;;
17065;SDS011;23120;52.336;21.182;2022-09-27T12:32:32;8.43;;;6.77;;
17065;SDS011;23120;52.336;21.182;2022-09-27T12:35:06;8.10;;;7.27;;
17065;SDS011;23120;52.336;21.182;2022-09-27T12:37:44;8.20;;;7.50;;
17065;SDS011;23120;52.336;21.182;2022-09-27T12:40:16;8.57;;;7.87;;
17065;SDS011;23120;52.336;21.182;2022-09-27T12:42:49;7.53;;;6.83;;
17065;SDS011;23120;52.336;21.182;2022-09-27T12:45:26;9.20;;;8.27;;
17065;SDS011;23120;52.336;21.182;2022-09-27T12:48:07;8.93;;;8.23;;
17065;SDS011;23120;52.336;21.182;2022-09-27T12:50:42;9.50;;;8.60;;
17065;SDS011;23120;52.336;21.182;2022-09-27T12:53:12;8.70;;;7.80;;
17065;SDS011;23120;52.336;21.182;2022-09-27T12:55:53;8.93;;;8.23;;
17065;SDS011;23120;52.336;21.182;2022-09-27T12:58:33;9.10;;;8.33;;
17065;SDS011;23120;52.336;21.182;2022-09-27T13:01:16;9.43;;;8.53;;
17065;SDS011;23120;52.336;21.182;2022-09-27T13:04:05;9.00;;;8.30;;
17065;SDS011;23120;52.336;21.182;2022-09-27T13:06:52;8.73;;;7.93;;
17065;SDS011;23120;52.336;21.182;2022-09-27T13:09:40;8.83;;;8.03;;
17065;SDS011;23120;52.336;21.182;2022-09-27T13:12:21;8.30;;;7.50;;
17065;SDS011;23120;52.336;21.182;2022-09-27T13:14:56;8.47;;;7.77;;
17065;SDS011;23120;52.336;21.182;2022-09-27T13:17:30;9.10;;;8.20;;
17065;SDS011;23120;52.336;21.182;2022-09-27T13:26:46;9.80;;;9.00;;
17065;SDS011;23120;52.336;21.182;2022-09-27T13:29:21;9.50;;;8.70;;
17065;SDS011;23120;52.336;21.182;2022-09-27T13:32:01;9.53;;;8.57;;
17065;SDS011;23120;52.336;21.182;2022-09-27T13:34:54;9.13;;;8.30;;
17065;SDS011;23120;52.336;21.182;2022-09-27T13:37:42;9.10;;;8.30;;
17065;SDS011;23120;52.336;21.182;2022-09-27T13:40:29;8.17;;;7.57;;
17065;SDS011;23120;52.336;21.182;2022-09-27T13:43:24;9.13;;;8.43;;
17065;SDS011;23120;52.336;21.182;2022-09-27T13:46:24;8.40;;;7.70;;
17065;SDS011;23120;52.336;21.182;2022-09-27T13:48:54;8.77;;;8.07;;
17065;SDS011;23120;52.336;21.182;2022-09-27T13:51:39;8.77;;;7.97;;
17065;SDS011;23120;52.336;21.182;2022-09-27T14:00:09;10.27;;;9.10;;
17065;SDS011;23120;52.336;21.182;2022-09-27T14:02:55;16.17;;;9.80;;
17065;SDS011;23120;52.336;21.182;2022-09-27T14:05:29;40.67;;;15.70;;
17065;SDS011;23120;52.336;21.182;2022-09-27T14:08:00;26.40;;;11.67;;
17065;SDS011;23120;52.336;21.182;2022-09-27T14:10:30;15.33;;;9.83;;
17065;SDS011;23120;52.336;21.182;2022-09-27T14:13:01;10.50;;;9.07;;
17065;SDS011;23120;52.336;21.182;2022-09-27T14:15:35;10.80;;;9.23;;
17065;SDS011;23120;52.336;21.182;2022-09-27T14:18:03;10.63;;;9.60;;
17065;SDS011;23120;52.336;21.182;2022-09-27T14:20:31;10.17;;;9.33;;
17065;SDS011;23120;52.336;21.182;2022-09-27T14:23:02;10.67;;;9.27;;
17065;SDS011;23120;52.336;21.182;2022-09-27T14:25:37;12.73;;;9.10;;
17065;SDS011;23120;52.336;21.182;2022-09-27T14:28:18;10.47;;;9.43;;
17065;SDS011;23120;52.336;21.182;2022-09-27T14:31:09;12.10;;;9.03;;
17065;SDS011;23120;52.336;21.182;2022-09-27T14:33:57;9.20;;;8.47;;
17065;SDS011;23120;52.336;21.182;2022-09-27T14:36:31;11.03;;;9.30;;
17065;SDS011;23120;52.336;21.182;2022-09-27T14:39:20;9.97;;;9.07;;
17065;SDS011;23120;52.336;21.182;2022-09-27T14:41:53;13.30;;;9.00;;
17065;SDS011;23120;52.336;21.182;2022-09-27T14:44:23;12.43;;;9.10;;
17065;SDS011;23120;52.336;21.182;2022-09-27T14:49:45;10.37;;;8.57;;
17065;SDS011;23120;52.336;21.182;2022-09-27T14:52:15;11.13;;;8.40;;
17065;SDS011;23120;52.336;21.182;2022-09-27T14:54:53;12.70;;;8.50;;
17065;SDS011;23120;52.336;21.182;2022-09-27T14:57:25;9.13;;;7.93;;
17065;SDS011;23120;52.336;21.182;2022-09-27T14:59:54;9.27;;;8.47;;
17065;SDS011;23120;52.336;21.182;2022-09-27T15:02:22;8.90;;;8.10;;
17065;SDS011;23120;52.336;21.182;2022-09-27T15:04:50;9.17;;;8.37;;
17065;SDS011;23120;52.336;21.182;2022-09-27T15:07:18;15.10;;;8.17;;
17065;SDS011;23120;52.336;21.182;2022-09-27T15:09:46;10.00;;;9.00;;
17065;SDS011;23120;52.336;21.182;2022-09-27T15:12:17;8.97;;;8.17;;
17065;SDS011;23120;52.336;21.182;2022-09-27T15:14:50;8.70;;;7.90;;
17065;SDS011;23120;52.336;21.182;2022-09-27T15:17:20;8.87;;;8.17;;